Time;durP1;ratioP1;P1;durP2;ratioP2;P2;SDS_P1;SDS_P2;PMS_P1;PMS_P2;Temp;Humidity;BMP_temperature;BMP_pressure;BME280_temperature;BME280_humidity;BME280_pressure;Samples;Min_cycle;Max_cycle;Signal;HPM_P1;HPM_P2
2023/07/02 00:01:03;;;;;;;6.75;3.40;;;15.70;85.90;;;;;;5034154;28;20045;-64
2023/07/02 00:03:29;;;;;;;9.18;3.42;;;15.70;85.90;;;;;;5035375;28;20044;-63
2023/07/02 00:05:56;;;;;;;8.73;3.75;;;15.60;85.70;;;;;;5037206;28;20049;-63
2023/07/02 00:08:22;;;;;;;10.32;4.10;;;15.60;85.80;;;;;;5031095;28;20053;-63
2023/07/02 00:10:48;;;;;;;7.38;3.05;;;15.50;85.80;;;;;;5038901;28;20097;-63
2023/07/02 00:13:14;;;;;;;9.82;3.92;;;15.50;85.90;;;;;;5032987;28;20033;-64
2023/07/02 00:15:41;;;;;;;11.13;3.95;;;15.50;85.60;;;;;;5037154;28;20072;-64
2023/07/02 00:18:06;;;;;;;9.18;4.05;;;15.60;85.40;;;;;;5040549;28;20179;-63
2023/07/02 00:20:37;;;;;;;10.80;3.88;;;15.60;85.20;;;;;;5044191;28;20053;-63
2023/07/02 00:23:03;;;;;;;10.95;3.90;;;15.60;85.00;;;;;;5053642;28;20037;-63
2023/07/02 00:25:29;;;;;;;11.25;4.18;;;15.60;84.70;;;;;;5036621;28;20033;-63
2023/07/02 00:27:54;;;;;;;8.70;3.70;;;15.70;84.50;;;;;;5031964;28;20045;-63
2023/07/02 00:30:20;;;;;;;13.93;4.28;;;15.70;84.20;;;;;;5038032;28;20046;-63
2023/07/02 00:32:46;;;;;;;9.43;3.88;;;15.70;84.00;;;;;;5036103;28;20128;-64
2023/07/02 00:35:11;;;;;;;14.25;4.32;;;15.70;84.00;;;;;;5040774;28;20042;-64
2023/07/02 00:37:37;;;;;;;9.85;3.88;;;15.70;83.70;;;;;;5031541;28;20096;-63
2023/07/02 00:40:03;;;;;;;20.20;5.20;;;15.70;83.50;;;;;;5038711;28;20049;-64
2023/07/02 00:42:30;;;;;;;12.63;4.40;;;15.70;83.10;;;;;;5039854;28;20375;-64
2023/07/02 00:44:57;;;;;;;9.85;4.50;;;15.60;82.90;;;;;;5042132;28;20044;-63
2023/07/02 00:47:23;;;;;;;14.07;4.45;;;15.60;82.50;;;;;;5031942;28;20079;-64
2023/07/02 00:49:50;;;;;;;8.20;3.92;;;15.60;82.50;;;;;;5044405;28;20533;-65
2023/07/02 00:52:16;;;;;;;11.48;3.92;;;15.50;82.30;;;;;;5032512;28;20178;-68
2023/07/02 00:54:41;;;;;;;11.38;4.00;;;15.50;82.50;;;;;;5033694;28;20056;-63
2023/07/02 00:57:08;;;;;;;15.98;5.38;;;15.40;82.60;;;;;;5039237;28;20048;-64
2023/07/02 00:59:35;;;;;;;17.98;4.85;;;15.30;82.60;;;;;;5032875;28;20118;-63
2023/07/02 01:02:01;;;;;;;14.80;4.70;;;15.30;82.60;;;;;;5036911;28;20456;-63
2023/07/02 01:04:27;;;;;;;12.32;4.60;;;15.20;82.60;;;;;;5046046;28;20124;-64
2023/07/02 01:06:59;;;;;;;9.77;4.78;;;15.10;82.80;;;;;;5035645;28;20056;-63
2023/07/02 01:09:26;;;;;;;18.83;5.57;;;15.00;83.00;;;;;;5036991;28;20095;-64
2023/07/02 01:12:02;;;;;;;15.88;5.20;;;15.00;83.20;;;;;;5031141;28;20108;-63
2023/07/02 01:14:39;;;;;;;12.75;4.53;;;14.90;83.30;;;;;;5039901;28;20045;-63
2023/07/02 01:17:06;;;;;;;12.40;5.07;;;14.90;83.70;;;;;;5044072;28;20036;-63
2023/07/02 01:19:52;;;;;;;14.13;5.22;;;14.80;83.80;;;;;;5042947;28;20048;-64
2023/07/02 01:22:19;;;;;;;12.85;5.75;;;14.70;84.00;;;;;;5033091;28;20055;-63
2023/07/02 01:24:48;;;;;;;15.98;4.88;;;14.60;84.40;;;;;;5034044;28;20391;-63
2023/07/02 01:27:15;;;;;;;12.25;4.82;;;14.60;84.50;;;;;;5030459;28;20064;-63
2023/07/02 01:29:41;;;;;;;13.80;5.18;;;14.50;84.60;;;;;;5033328;28;20622;-63
2023/07/02 01:32:08;;;;;;;14.77;5.22;;;14.50;84.70;;;;;;5031148;28;20029;-63
2023/07/02 01:34:34;;;;;;;11.50;5.50;;;14.40;84.90;;;;;;5043401;28;20118;-63
2023/07/02 01:37:00;;;;;;;12.80;4.93;;;14.40;85.20;;;;;;5034028;28;20045;-63
2023/07/02 01:39:26;;;;;;;15.13;5.65;;;14.30;85.10;;;;;;5039986;28;20379;-64
2023/07/02 01:41:53;;;;;;;14.60;5.45;;;14.30;85.40;;;;;;5028676;28;20056;-63
2023/07/02 01:44:19;;;;;;;12.10;4.95;;;14.20;85.70;;;;;;5029827;28;20835;-63
2023/07/02 01:46:48;;;;;;;19.17;5.55;;;14.10;85.90;;;;;;5034009;28;20041;-63
2023/07/02 01:49:20;;;;;;;18.35;6.13;;;14.10;86.20;;;;;;5030268;28;20470;-64
2023/07/02 01:51:52;;;;;;;18.95;5.45;;;14.10;86.40;;;;;;5035442;28;20053;-63
2023/07/02 01:54:19;;;;;;;13.93;5.55;;;14.10;86.40;;;;;;5041101;28;20111;-63
2023/07/02 01:56:45;;;;;;;15.38;5.35;;;14.10;86.30;;;;;;5046824;28;20029;-63
2023/07/02 01:59:11;;;;;;;13.55;5.70;;;14.00;86.20;;;;;;5030658;28;20037;-64
2023/07/02 02:01:40;;;;;;;12.18;5.72;;;14.00;86.30;;;;;;5030776;28;20612;-63
2023/07/02 02:04:06;;;;;;;16.10;5.50;;;14.00;86.20;;;;;;5026811;28;20045;-64
2023/07/02 02:06:32;;;;;;;15.23;6.45;;;14.00;86.20;;;;;;5036006;28;20047;-63
2023/07/02 02:08:58;;;;;;;13.55;5.63;;;14.00;86.30;;;;;;5042760;28;20030;-63
2023/07/02 02:11:24;;;;;;;13.30;5.28;;;13.90;86.30;;;;;;5039139;28;20059;-63
2023/07/02 02:13:50;;;;;;;17.83;5.80;;;13.90;86.30;;;;;;5036714;28;20041;-63
2023/07/02 02:16:16;;;;;;;18.02;6.15;;;13.90;86.50;;;;;;5037565;28;20164;-63
2023/07/02 02:18:42;;;;;;;22.75;6.35;;;13.90;86.50;;;;;;5034498;28;20180;-63
2023/07/02 02:21:07;;;;;;;17.30;5.78;;;13.80;86.70;;;;;;5035721;28;20037;-64
2023/07/02 02:23:33;;;;;;;22.45;7.03;;;13.80;86.70;;;;;;5029287;28;20037;-63
2023/07/02 02:25:59;;;;;;;18.38;5.45;;;13.80;86.70;;;;;;5042842;28;20611;-63
2023/07/02 02:28:24;;;;;;;11.60;5.35;;;13.70;86.80;;;;;;5029554;28;20040;-63
2023/07/02 02:30:50;;;;;;;17.05;7.03;;;13.70;86.90;;;;;;5031582;28;20194;-63
2023/07/02 02:33:15;;;;;;;21.48;6.35;;;13.80;86.90;;;;;;5032232;28;20124;-63
2023/07/02 02:35:41;;;;;;;17.58;6.25;;;13.70;86.90;;;;;;5031443;28;20830;-63
2023/07/02 02:38:06;;;;;;;17.05;6.18;;;13.70;87.10;;;;;;5041835;28;20430;-64
2023/07/02 02:40:32;;;;;;;18.58;6.38;;;13.70;87.20;;;;;;5036009;28;21059;-64
2023/07/02 02:42:57;;;;;;;21.45;6.70;;;13.60;87.20;;;;;;5037232;28;20469;-63
2023/07/02 02:45:23;;;;;;;17.25;7.15;;;13.60;87.30;;;;;;5032040;28;20047;-63
2023/07/02 02:47:48;;;;;;;17.10;6.18;;;13.50;87.50;;;;;;5034181;28;20061;-63
2023/07/02 02:50:14;;;;;;;20.30;6.03;;;13.50;87.60;;;;;;5026756;28;20041;-63
2023/07/02 02:52:40;;;;;;;16.98;5.95;;;13.50;87.80;;;;;;5029165;28;20091;-63
2023/07/02 02:55:07;;;;;;;16.83;5.85;;;13.40;87.90;;;;;;5037184;28;20055;-63
2023/07/02 02:57:33;;;;;;;20.58;7.20;;;13.40;88.00;;;;;;5041154;28;20334;-68
2023/07/02 02:59:59;;;;;;;20.42;6.68;;;13.40;88.00;;;;;;5038709;28;20043;-63
2023/07/02 03:02:25;;;;;;;16.80;5.38;;;13.40;88.00;;;;;;5039793;28;20049;-63
2023/07/02 03:04:51;;;;;;;17.77;6.28;;;13.40;88.20;;;;;;5046557;28;20090;-63
2023/07/02 03:07:17;;;;;;;18.50;6.07;;;13.40;88.40;;;;;;5040936;28;20373;-63
2023/07/02 03:09:42;;;;;;;16.60;6.72;;;13.40;88.30;;;;;;5016987;28;20113;-63
2023/07/02 03:12:08;;;;;;;19.25;6.40;;;13.30;88.40;;;;;;5043892;28;20373;-63
2023/07/02 03:14:34;;;;;;;19.98;7.13;;;13.30;88.50;;;;;;5046501;28;20127;-63
2023/07/02 03:16:59;;;;;;;18.98;5.93;;;13.40;88.50;;;;;;5050067;28;20110;-63
2023/07/02 03:19:25;;;;;;;17.45;6.35;;;13.40;88.40;;;;;;5044494;28;20035;-63
2023/07/02 03:21:50;;;;;;;18.63;6.20;;;13.40;88.30;;;;;;5035458;28;20385;-63
2023/07/02 03:24:16;;;;;;;18.92;7.25;;;13.30;88.30;;;;;;5035375;28;20048;-63
2023/07/02 03:26:45;;;;;;;19.60;6.38;;;13.30;88.30;;;;;;5036658;28;20068;-63
2023/07/02 03:29:11;;;;;;;19.30;6.90;;;13.30;88.30;;;;;;5043699;28;20072;-64
2023/07/02 03:31:37;;;;;;;20.17;6.70;;;13.30;88.50;;;;;;5034679;28;20143;-63
2023/07/02 03:34:09;;;;;;;17.70;7.80;;;13.30;88.50;;;;;;5034273;28;20132;-63
2023/07/02 03:36:38;;;;;;;21.63;6.80;;;13.30;88.50;;;;;;5040621;28;20037;-63
2023/07/02 03:39:04;;;;;;;21.63;8.25;;;13.30;89.20;;;;;;5035747;28;20048;-63
2023/07/02 03:41:31;;;;;;;17.52;7.30;;;13.30;88.60;;;;;;5034879;28;20040;-63
2023/07/02 03:43:56;;;;;;;20.30;7.00;;;13.30;88.50;;;;;;5035709;28;20487;-62
2023/07/02 03:46:22;;;;;;;20.25;7.45;;;13.30;88.50;;;;;;5045470;28;20112;-63
2023/07/02 03:48:47;;;;;;;19.00;6.40;;;13.30;88.40;;;;;;5052148;28;20454;-63
2023/07/02 03:51:14;;;;;;;19.33;6.95;;;13.40;88.40;;;;;;5051804;28;20048;-63
2023/07/02 03:53:40;;;;;;;23.17;7.13;;;13.40;88.50;;;;;;5031591;28;20060;-63
2023/07/02 03:56:06;;;;;;;20.13;7.15;;;13.40;88.20;;;;;;5037947;28;20037;-63
2023/07/02 03:58:31;;;;;;;19.92;7.28;;;13.40;88.10;;;;;;5028626;28;20047;-63
2023/07/02 04:00:57;;;;;;;25.90;7.63;;;13.50;88.10;;;;;;5033210;28;20056;-63
2023/07/02 04:03:22;;;;;;;19.63;7.15;;;13.50;88.00;;;;;;5035156;28;20044;-64
2023/07/02 04:05:48;;;;;;;21.42;7.38;;;13.50;87.90;;;;;;5042476;28;20059;-63
2023/07/02 04:08:15;;;;;;;18.63;6.40;;;13.50;88.10;;;;;;5043162;28;20047;-63
2023/07/02 04:10:40;;;;;;;20.52;6.72;;;13.50;88.20;;;;;;5038274;28;20107;-63
2023/07/02 04:13:06;;;;;;;27.65;6.93;;;13.50;88.40;;;;;;5032005;28;20029;-63
2023/07/02 04:15:32;;;;;;;19.38;7.43;;;13.50;88.30;;;;;;5035278;28;20036;-63
2023/07/02 04:17:57;;;;;;;18.48;6.10;;;13.50;88.50;;;;;;5040900;28;20056;-64
2023/07/02 04:20:23;;;;;;;19.38;6.60;;;13.40;88.50;;;;;;5044080;28;20113;-63
2023/07/02 04:22:48;;;;;;;26.48;7.13;;;13.40;88.70;;;;;;5041555;28;20121;-63
2023/07/02 04:25:15;;;;;;;23.20;6.55;;;13.40;88.60;;;;;;5040575;28;20056;-63
2023/07/02 04:27:44;;;;;;;18.35;6.93;;;13.50;88.80;;;;;;5039683;28;20049;-63
2023/07/02 04:30:11;;;;;;;15.90;6.55;;;13.50;88.90;;;;;;5034550;28;21234;-63
2023/07/02 04:32:40;;;;;;;16.65;6.90;;;13.50;89.00;;;;;;5035004;28;20040;-63
2023/07/02 04:35:07;;;;;;;19.85;6.88;;;13.50;88.90;;;;;;5044873;28;20060;-63
2023/07/02 04:37:33;;;;;;;22.10;7.15;;;13.60;89.00;;;;;;5037438;28;20136;-63
2023/07/02 04:39:58;;;;;;;20.67;7.43;;;13.60;88.80;;;;;;5029090;28;20059;-63
2023/07/02 04:42:37;;;;;;;19.17;7.03;;;13.70;88.80;;;;;;5038715;28;20091;-64
2023/07/02 04:45:06;;;;;;;21.70;7.53;;;13.70;88.70;;;;;;5033670;28;20159;-64
2023/07/02 04:47:32;;;;;;;22.27;6.53;;;13.90;88.40;;;;;;5032062;28;20037;-63
2023/07/02 04:49:58;;;;;;;20.15;7.05;;;14.00;88.10;;;;;;5032125;28;20100;-63
2023/07/02 04:52:24;;;;;;;26.17;7.35;;;14.20;87.70;;;;;;5041199;28;20117;-63
2023/07/02 04:54:50;;;;;;;24.13;6.97;;;14.40;87.60;;;;;;5040168;28;20119;-63
2023/07/02 04:57:15;;;;;;;21.35;6.45;;;14.50;87.40;;;;;;5036524;28;20090;-63
2023/07/02 04:59:42;;;;;;;17.98;6.82;;;14.60;87.10;;;;;;5035057;28;20070;-63
2023/07/02 05:02:08;;;;;;;23.02;6.57;;;14.70;86.50;;;;;;5039644;28;20355;-63
2023/07/02 05:04:35;;;;;;;17.77;6.45;;;14.70;86.00;;;;;;5038447;28;20350;-63
2023/07/02 05:07:00;;;;;;;23.33;8.05;;;14.80;85.80;;;;;;5033245;28;20045;-63
2023/07/02 05:09:26;;;;;;;21.10;7.47;;;14.90;85.80;;;;;;5030310;28;20563;-63
2023/07/02 05:11:51;;;;;;;25.70;8.00;;;14.90;85.80;;;;;;5037607;28;20037;-64
2023/07/02 05:14:17;;;;;;;26.02;7.25;;;15.00;85.60;;;;;;5034140;28;20752;-63
2023/07/02 05:16:42;;;;;;;20.50;6.38;;;15.10;85.10;;;;;;5039004;28;20327;-63
2023/07/02 05:19:08;;;;;;;17.45;6.63;;;15.20;85.30;;;;;;5041131;28;20037;-63
2023/07/02 05:21:34;;;;;;;18.77;6.72;;;15.30;85.40;;;;;;5034847;28;20992;-64
2023/07/02 05:23:59;;;;;;;18.05;6.88;;;15.40;85.10;;;;;;5035125;28;20072;-63
2023/07/02 05:26:26;;;;;;;18.35;6.50;;;15.50;85.00;;;;;;5032888;28;20115;-64
2023/07/02 05:28:52;;;;;;;18.85;7.53;;;15.60;84.40;;;;;;5027158;28;20081;-64
2023/07/02 05:31:18;;;;;;;23.83;7.95;;;15.80;84.40;;;;;;5024070;28;20040;-64
2023/07/02 05:33:43;;;;;;;18.58;6.35;;;15.90;83.90;;;;;;5030506;28;20045;-64
2023/07/02 05:36:09;;;;;;;19.45;6.47;;;16.00;83.40;;;;;;5033828;28;20377;-64
2023/07/02 05:38:34;;;;;;;22.65;6.68;;;16.10;83.10;;;;;;5036825;28;20088;-64
2023/07/02 05:41:01;;;;;;;25.17;6.47;;;16.20;82.40;;;;;;5035666;28;20028;-65
2023/07/02 05:43:27;;;;;;;18.70;6.50;;;16.30;81.80;;;;;;5032823;28;20037;-64
2023/07/02 05:45:52;;;;;;;16.42;6.00;;;16.30;81.40;;;;;;5023853;28;20350;-64
2023/07/02 05:48:18;;;;;;;21.05;6.95;;;16.40;81.20;;;;;;5036442;28;20057;-64
2023/07/02 05:50:45;;;;;;;16.25;6.32;;;16.50;81.00;;;;;;5035730;28;20041;-64
2023/07/02 05:53:10;;;;;;;14.05;5.90;;;16.60;80.40;;;;;;5034427;28;20068;-64
2023/07/02 05:55:37;;;;;;;21.55;6.20;;;16.70;80.00;;;;;;5026243;28;20040;-64
2023/07/02 05:58:03;;;;;;;19.60;5.90;;;16.90;79.30;;;;;;5033245;28;20048;-64
2023/07/02 06:00:29;;;;;;;22.42;6.35;;;16.90;78.80;;;;;;5025603;28;20049;-65
2023/07/02 06:02:54;;;;;;;20.02;7.18;;;17.10;76.80;;;;;;5029340;28;20041;-65
2023/07/02 06:05:20;;;;;;;20.38;6.32;;;17.20;76.90;;;;;;5030107;28;20060;-64
2023/07/02 06:07:46;;;;;;;16.63;5.55;;;17.40;76.80;;;;;;5030460;28;20135;-65
2023/07/02 06:10:11;;;;;;;15.82;6.30;;;17.50;75.60;;;;;;5042311;28;20037;-64
2023/07/02 06:12:37;;;;;;;21.38;6.35;;;17.60;75.30;;;;;;5027071;28;20106;-65
2023/07/02 06:15:03;;;;;;;17.88;6.15;;;17.80;73.80;;;;;;5031952;28;20052;-64
2023/07/02 06:17:30;;;;;;;15.40;5.28;;;18.00;74.50;;;;;;5045647;28;20037;-64
2023/07/02 06:19:56;;;;;;;16.63;5.93;;;18.10;73.70;;;;;;5032780;28;20060;-64
2023/07/02 06:22:22;;;;;;;16.35;5.82;;;18.20;72.50;;;;;;5030593;28;20069;-65
2023/07/02 06:24:47;;;;;;;14.88;5.43;;;18.00;71.80;;;;;;5044966;28;20161;-64
2023/07/02 06:27:13;;;;;;;19.00;6.03;;;18.10;71.50;;;;;;5040048;28;20462;-65
2023/07/02 06:29:38;;;;;;;18.38;5.03;;;18.00;71.00;;;;;;5034313;28;20068;-64
2023/07/02 06:32:04;;;;;;;17.08;5.53;;;17.90;70.60;;;;;;5031670;28;20045;-65
2023/07/02 06:34:30;;;;;;;13.40;4.72;;;17.80;70.50;;;;;;5030657;28;20095;-64
2023/07/02 06:36:55;;;;;;;12.98;4.97;;;17.80;70.40;;;;;;5038798;28;20095;-65
2023/07/02 06:39:21;;;;;;;13.63;5.30;;;17.90;70.60;;;;;;5030628;28;20041;-64
2023/07/02 06:41:46;;;;;;;15.38;5.20;;;17.90;69.80;;;;;;5036971;28;20037;-65
2023/07/02 06:44:12;;;;;;;11.25;4.80;;;18.00;69.30;;;;;;5031373;28;20030;-65
2023/07/02 06:46:38;;;;;;;12.70;5.00;;;18.40;68.60;;;;;;5029857;28;20037;-65
2023/07/02 06:49:03;;;;;;;13.75;4.25;;;18.50;66.50;;;;;;5038583;28;20060;-65
2023/07/02 06:51:29;;;;;;;11.88;4.43;;;18.70;67.20;;;;;;5043606;28;21275;-66
2023/07/02 06:53:55;;;;;;;11.20;4.32;;;18.60;61.60;;;;;;5038153;28;20331;-64
2023/07/02 06:56:20;;;;;;;13.77;4.13;;;18.40;63.80;;;;;;5035046;28;20081;-63
2023/07/02 06:58:46;;;;;;;14.27;4.85;;;18.20;64.00;;;;;;5028960;28;20037;-64
2023/07/02 07:01:11;;;;;;;10.02;4.15;;;18.00;63.90;;;;;;5026740;28;20045;-64
2023/07/02 07:03:37;;;;;;;16.05;6.03;;;18.10;64.40;;;;;;5033925;28;20212;-64
2023/07/02 07:06:03;;;;;;;17.10;5.15;;;18.30;64.30;;;;;;5038518;28;20489;-65
2023/07/02 07:08:29;;;;;;;15.80;4.80;;;18.70;63.90;;;;;;5030038;28;20052;-64
2023/07/02 07:10:54;;;;;;;14.30;5.30;;;19.00;65.10;;;;;;5039227;28;20044;-64
2023/07/02 07:13:20;;;;;;;13.90;4.65;;;19.10;65.20;;;;;;5037099;28;20083;-64
2023/07/02 07:15:46;;;;;;;14.43;4.70;;;19.20;65.00;;;;;;5032442;28;20033;-65
2023/07/02 07:18:11;;;;;;;14.05;4.68;;;19.10;64.30;;;;;;5039889;28;20042;-64
2023/07/02 07:20:40;;;;;;;13.70;4.55;;;18.90;64.80;;;;;;5032878;28;20045;-64
2023/07/02 07:23:06;;;;;;;14.88;5.00;;;18.80;64.20;;;;;;5034814;28;20099;-63
2023/07/02 07:25:31;;;;;;;13.63;4.70;;;18.60;63.70;;;;;;5037259;28;20077;-64
2023/07/02 07:27:59;;;;;;;9.57;3.58;;;18.60;62.60;;;;;;5038401;28;20191;-64
2023/07/02 07:30:25;;;;;;;13.27;4.28;;;18.50;61.00;;;;;;5030525;28;20045;-65
2023/07/02 07:32:54;;;;;;;10.73;4.05;;;18.60;59.20;;;;;;5048255;28;20136;-64
2023/07/02 07:35:22;;;;;;;12.85;4.28;;;18.50;60.90;;;;;;5035643;28;20105;-64
2023/07/02 07:37:49;;;;;;;12.32;4.10;;;18.70;60.30;;;;;;5035869;28;20733;-65
2023/07/02 07:40:14;;;;;;;7.88;3.55;;;19.10;59.10;;;;;;5039869;28;20133;-64
2023/07/02 07:42:42;;;;;;;7.53;3.42;;;19.60;59.80;;;;;;5031361;28;20132;-65
2023/07/02 07:45:09;;;;;;;9.25;3.00;;;20.20;59.00;;;;;;5025191;28;20046;-65
2023/07/02 07:47:34;;;;;;;12.93;3.65;;;20.20;57.10;;;;;;5031604;28;20399;-64
2023/07/02 07:50:00;;;;;;;8.27;2.70;;;20.20;57.70;;;;;;5043540;28;20051;-64
2023/07/02 07:52:26;;;;;;;9.52;2.53;;;20.30;57.30;;;;;;5040436;28;20030;-64
2023/07/02 07:54:51;;;;;;;8.50;2.60;;;20.30;56.60;;;;;;5039264;28;20037;-65
2023/07/02 07:57:17;;;;;;;9.55;3.25;;;20.00;54.80;;;;;;5041190;28;20095;-64
2023/07/02 07:59:42;;;;;;;7.78;2.90;;;19.90;55.40;;;;;;5044502;28;20048;-64
2023/07/02 08:02:09;;;;;;;8.98;2.75;;;20.00;55.00;;;;;;5035406;28;20037;-64
2023/07/02 08:04:34;;;;;;;6.05;2.50;;;20.30;54.70;;;;;;5047668;28;20051;-64
2023/07/02 08:07:00;;;;;;;7.28;2.60;;;20.40;54.60;;;;;;5030812;28;20466;-63
2023/07/02 08:09:25;;;;;;;8.90;2.42;;;20.20;53.90;;;;;;5031374;28;20803;-64
2023/07/02 08:11:51;;;;;;;7.65;2.70;;;19.90;54.30;;;;;;5030228;28;20029;-66
2023/07/02 08:14:20;;;;;;;5.55;2.20;;;19.60;52.90;;;;;;5032164;28;20056;-63
2023/07/02 08:16:45;;;;;;;5.93;2.33;;;19.40;52.20;;;;;;5036174;28;20149;-64
2023/07/02 08:19:11;;;;;;;6.38;2.55;;;19.40;52.50;;;;;;5040582;28;20037;-64
2023/07/02 08:21:37;;;;;;;6.63;2.38;;;18.90;52.80;;;;;;5037037;28;20044;-64
2023/07/02 08:24:03;;;;;;;8.65;2.58;;;18.80;52.70;;;;;;5040939;28;20477;-65
2023/07/02 08:26:29;;;;;;;7.00;2.08;;;18.80;53.40;;;;;;5040303;28;20061;-64
2023/07/02 08:28:54;;;;;;;7.60;2.85;;;19.20;53.80;;;;;;5046617;28;20530;-63
2023/07/02 08:31:20;;;;;;;6.68;2.90;;;19.80;52.70;;;;;;5046193;28;20073;-65
2023/07/02 08:33:46;;;;;;;7.80;3.33;;;20.60;53.30;;;;;;5035593;28;20044;-66
2023/07/02 08:36:13;;;;;;;6.70;2.63;;;20.50;51.20;;;;;;5042646;28;20097;-64
2023/07/02 08:38:41;;;;;;;6.20;2.75;;;20.30;52.80;;;;;;5040966;28;20049;-64
2023/07/02 08:41:07;;;;;;;8.93;2.80;;;20.10;52.60;;;;;;5019798;28;20040;-65
2023/07/02 08:43:34;;;;;;;8.77;2.78;;;19.80;52.60;;;;;;5033005;28;20113;-65
2023/07/02 08:45:59;;;;;;;6.50;2.85;;;20.10;52.20;;;;;;5030784;28;20144;-63
2023/07/02 08:48:28;;;;;;;10.45;2.78;;;20.60;51.50;;;;;;5032514;28;20143;-64
2023/07/02 08:50:54;;;;;;;6.40;2.60;;;21.00;51.10;;;;;;5030449;28;20048;-64
2023/07/02 08:53:25;;;;;;;6.40;2.17;;;20.60;49.90;;;;;;5044750;28;20036;-65
2023/07/02 08:55:50;;;;;;;9.13;2.85;;;20.10;49.30;;;;;;5037812;28;20029;-65
2023/07/02 08:58:16;;;;;;;10.48;2.83;;;19.70;50.60;;;;;;5046975;28;20496;-65
2023/07/02 09:01:06;;;;;;;6.28;2.72;;;19.30;51.30;;;;;;5042659;28;20152;-64
2023/07/02 09:03:31;;;;;;;7.40;2.70;;;19.10;50.60;;;;;;5037201;28;20051;-65
2023/07/02 09:05:57;;;;;;;10.48;2.72;;;18.90;52.50;;;;;;5042909;28;20287;-63
2023/07/02 09:08:27;;;;;;;8.65;3.13;;;18.90;53.30;;;;;;5045860;28;20116;-64
2023/07/02 09:10:53;;;;;;;13.48;3.08;;;19.40;53.40;;;;;;5044323;28;20127;-64
2023/07/02 09:13:18;;;;;;;8.85;2.40;;;20.60;52.20;;;;;;5047177;28;20044;-65
2023/07/02 09:15:44;;;;;;;11.55;3.15;;;21.10;51.10;;;;;;5039403;28;20045;-65
2023/07/02 09:18:19;;;;;;;7.72;3.15;;;20.70;49.70;;;;;;5047740;28;20037;-66
2023/07/02 09:20:46;;;;;;;8.63;3.15;;;20.40;49.20;;;;;;5042674;28;20528;-64
2023/07/02 09:23:12;;;;;;;10.88;3.22;;;20.20;51.50;;;;;;5039698;28;20052;-65
2023/07/02 09:25:39;;;;;;;12.63;3.35;;;19.80;52.00;;;;;;5047377;28;20041;-65
2023/07/02 09:28:23;;;;;;;8.93;2.95;;;19.00;54.50;;;;;;5046016;28;20102;-64
2023/07/02 09:30:53;;;;;;;12.68;3.08;;;18.90;55.80;;;;;;5030967;28;20443;-68
2023/07/02 09:33:18;;;;;;;10.65;3.08;;;18.90;56.00;;;;;;5044935;28;20060;-65
2023/07/02 09:35:44;;;;;;;14.82;3.70;;;19.10;56.10;;;;;;5048785;28;20071;-64
2023/07/02 09:38:12;;;;;;;7.28;3.30;;;19.10;56.10;;;;;;5044634;28;20037;-64
2023/07/02 09:40:45;;;;;;;9.45;3.45;;;19.00;56.10;;;;;;5043089;28;20049;-64
2023/07/02 09:43:11;;;;;;;7.40;3.25;;;18.90;56.30;;;;;;5027948;28;20885;-64
2023/07/02 09:45:38;;;;;;;12.05;3.03;;;18.90;56.50;;;;;;5036390;28;20155;-64
2023/07/02 09:48:06;;;;;;;6.82;3.08;;;18.90;56.40;;;;;;5036459;28;20326;-63
2023/07/02 09:50:32;;;;;;;10.90;4.25;;;18.80;56.30;;;;;;5040536;28;20047;-63
2023/07/02 09:52:58;;;;;;;9.25;3.60;;;18.80;56.20;;;;;;5047551;28;20043;-63
2023/07/02 09:55:24;;;;;;;12.02;3.78;;;18.90;56.40;;;;;;5034431;28;20037;-64
2023/07/02 09:57:49;;;;;;;13.23;4.00;;;18.80;56.20;;;;;;5037729;28;20123;-64
2023/07/02 10:00:16;;;;;;;10.38;3.78;;;18.80;56.50;;;;;;5018642;28;20140;-63
2023/07/02 10:02:41;;;;;;;10.13;3.63;;;18.80;56.80;;;;;;5043300;28;20044;-63
2023/07/02 10:05:07;;;;;;;10.68;3.15;;;19.20;56.80;;;;;;5036032;28;20364;-63
2023/07/02 10:07:33;;;;;;;7.97;2.80;;;19.50;55.80;;;;;;5035779;28;20105;-63
2023/07/02 10:09:59;;;;;;;9.07;3.17;;;19.80;54.30;;;;;;5033373;28;20051;-65
2023/07/02 10:12:27;;;;;;;6.60;3.08;;;20.80;53.90;;;;;;5033698;28;20345;-65
2023/07/02 10:14:55;;;;;;;8.77;2.60;;;21.70;49.50;;;;;;5017583;28;20037;-64
2023/07/02 10:17:32;;;;;;;8.10;2.72;;;21.60;47.70;;;;;;5017562;28;20135;-63
2023/07/02 10:20:00;;;;;;;8.43;2.80;;;21.30;48.60;;;;;;5021242;28;20080;-64
2023/07/02 10:22:26;;;;;;;5.32;2.75;;;21.50;50.60;;;;;;5037762;28;20041;-63
2023/07/02 10:25:00;;;;;;;12.95;3.28;;;21.90;49.70;;;;;;5039246;28;20181;-64
2023/07/02 10:27:36;;;;;;;9.05;3.20;;;22.20;48.50;;;;;;5033343;28;20048;-63
2023/07/02 10:30:03;;;;;;;8.55;2.78;;;21.80;49.70;;;;;;5043031;28;20467;-63
2023/07/02 10:32:29;;;;;;;7.32;2.75;;;21.50;50.10;;;;;;5039140;28;20060;-63
2023/07/02 10:34:55;;;;;;;7.25;2.58;;;21.90;50.40;;;;;;5033361;28;20048;-64
2023/07/02 10:37:21;;;;;;;10.13;2.33;;;22.80;48.40;;;;;;5044010;28;20029;-64
2023/07/02 10:39:46;;;;;;;8.55;2.40;;;23.60;45.50;;;;;;5047900;28;20124;-64
2023/07/02 10:42:12;;;;;;;7.57;2.83;;;23.30;43.40;;;;;;5040064;28;20061;-65
2023/07/02 10:44:51;;;;;;;11.52;2.65;;;22.80;42.90;;;;;;5038393;28;20639;-64
2023/07/02 10:47:18;;;;;;;8.53;2.50;;;22.10;41.20;;;;;;5033073;28;20171;-64
2023/07/02 10:49:44;;;;;;;7.70;3.10;;;21.70;44.30;;;;;;5037590;28;20056;-64
2023/07/02 10:52:09;;;;;;;10.95;3.33;;;21.80;45.50;;;;;;5037504;28;20049;-63
2023/07/02 10:54:43;;;;;;;8.48;3.78;;;21.80;46.30;;;;;;5036478;28;20089;-64
2023/07/02 10:57:10;;;;;;;10.43;3.90;;;22.90;44.00;;;;;;5033834;28;20069;-64
2023/07/02 10:59:35;;;;;;;8.77;3.20;;;23.00;44.40;;;;;;5034091;28;20603;-64
2023/07/02 11:02:03;;;;;;;15.27;3.67;;;23.10;43.90;;;;;;5033055;28;20128;-64
2023/07/02 11:04:33;;;;;;;9.18;2.97;;;22.90;44.50;;;;;;5041826;28;20083;-66
2023/07/02 11:06:59;;;;;;;9.45;2.20;;;22.80;41.30;;;;;;5050184;28;20044;-64
2023/07/02 11:09:25;;;;;;;11.05;3.03;;;22.20;43.60;;;;;;5052285;28;20080;-68
2023/07/02 11:11:58;;;;;;;9.55;3.03;;;22.10;43.60;;;;;;5047595;28;20079;-65
2023/07/02 11:14:36;;;;;;;5.90;2.20;;;22.10;41.00;;;;;;5032489;28;20470;-64
2023/07/02 11:17:06;;;;;;;9.85;2.33;;;21.90;43.00;;;;;;5034765;28;20033;-63
2023/07/02 11:19:35;;;;;;;13.70;2.53;;;21.70;43.00;;;;;;5032798;28;20101;-64
2023/07/02 11:22:02;;;;;;;5.93;2.20;;;21.50;43.50;;;;;;5036318;28;20371;-64
2023/07/02 11:24:33;;;;;;;7.35;2.97;;;21.40;44.00;;;;;;5030758;28;20786;-63
2023/07/02 11:27:00;;;;;;;8.10;2.60;;;21.10;44.30;;;;;;5034599;28;20038;-65
2023/07/02 11:29:28;;;;;;;8.13;2.83;;;21.00;44.80;;;;;;5043812;28;20399;-63
2023/07/02 11:31:53;;;;;;;7.35;2.55;;;20.80;45.90;;;;;;5037776;28;20033;-64
2023/07/02 11:34:21;;;;;;;9.93;2.90;;;21.20;45.80;;;;;;5038827;28;20044;-66
2023/07/02 11:36:47;;;;;;;9.27;3.03;;;21.30;45.60;;;;;;5041084;28;20449;-63
2023/07/02 11:39:15;;;;;;;13.43;4.43;;;21.40;45.90;;;;;;5040367;28;20546;-64
2023/07/02 11:41:42;;;;;;;10.95;2.88;;;21.10;45.60;;;;;;5033229;28;20056;-64
2023/07/02 11:44:08;;;;;;;6.15;2.80;;;21.10;45.70;;;;;;5039805;28;20044;-63
2023/07/02 11:46:34;;;;;;;7.75;3.35;;;20.90;45.40;;;;;;5028333;28;20068;-64
2023/07/02 11:49:08;;;;;;;9.18;3.60;;;20.80;45.40;;;;;;5044463;28;20053;-63
2023/07/02 11:51:36;;;;;;;9.02;3.22;;;20.80;45.80;;;;;;5033180;28;20145;-63
2023/07/02 11:54:03;;;;;;;9.27;3.08;;;21.00;45.30;;;;;;5042583;28;20464;-63
2023/07/02 11:56:28;;;;;;;6.63;2.47;;;21.30;45.10;;;;;;5032433;28;20037;-63
2023/07/02 11:58:54;;;;;;;7.43;3.03;;;21.70;45.20;;;;;;5035735;28;20873;-63
2023/07/02 12:01:19;;;;;;;6.80;2.20;;;21.70;44.40;;;;;;5037416;28;20123;-64
2023/07/02 12:03:45;;;;;;;9.93;2.90;;;21.50;44.50;;;;;;5041553;28;20049;-63
2023/07/02 12:06:11;;;;;;;7.20;2.38;;;21.40;44.90;;;;;;5043861;28;20133;-63
2023/07/02 12:08:36;;;;;;;7.30;2.47;;;21.30;45.10;;;;;;5042245;28;20052;-62
2023/07/02 12:11:02;;;;;;;6.82;2.78;;;21.30;45.30;;;;;;5036692;28;20029;-63
2023/07/02 12:13:27;;;;;;;6.93;2.20;;;21.10;45.70;;;;;;5036552;28;20092;-63
2023/07/02 12:15:53;;;;;;;8.68;2.38;;;21.00;45.80;;;;;;5040544;28;20044;-64
2023/07/02 12:18:18;;;;;;;5.88;2.10;;;21.10;45.90;;;;;;5040941;28;20035;-63
2023/07/02 12:20:44;;;;;;;4.82;2.33;;;22.10;44.60;;;;;;5047915;28;20425;-63
2023/07/02 12:23:11;;;;;;;7.10;2.30;;;22.70;43.10;;;;;;5043033;28;20344;-63
2023/07/02 12:25:37;;;;;;;9.25;2.45;;;23.70;41.50;;;;;;5034403;28;20041;-63
2023/07/02 12:28:03;;;;;;;10.20;2.45;;;23.50;41.10;;;;;;5045361;28;20476;-63
2023/07/02 12:30:29;;;;;;;5.32;2.25;;;25.30;39.30;;;;;;5044978;28;20041;-63
2023/07/02 12:32:54;;;;;;;6.95;2.08;;;25.90;37.10;;;;;;5040056;28;20052;-63
2023/07/02 12:35:20;;;;;;;6.80;2.15;;;25.00;37.40;;;;;;5037072;28;20037;-64
2023/07/02 12:37:47;;;;;;;5.72;2.10;;;23.90;37.80;;;;;;5038841;28;20037;-63